Hope Airport
CYHE : now visible

Airfield :











YOU CAN JOIN US ON...

 
LOGIN :

Register | Disclaimer

   EN    FR    IT 

 









Legend :    VFR   Marginal VFR   IFR   Intensive IFR   Very Intensive IFR
Visi :
Ceiling :
>= 8 km
>= 3000ft
5 to 8 km
1000 to 3000 ft
1500m to 5 km
500 to 1000 ft
800 to 1500m
200 to 500 ft
< 800m
< 200 ft
Symbols :   Thunderstorms  Fog  Heavy snow  Heavy precipitations  Wind > 20 kt






- Airport Elevation : 128 ft
- IATA code : YHE


CYHE - Hope

CURRENT METAR :
  • 080924Z AUTO 12012KT 3SM BR BKN091 M00/M00 A2995 RMK SLP145

EXPIRED METARs :
  • 080906Z AUTO 12009KT 4SM BR FEW002 SCT096 SCT210 M00/M00 A2996 RMK SLP148
  • 080902Z AUTO 12009KT 5SM BR BKN096 BKN210 M00/M00 A2996 RMK SLP150
  • 080846Z AUTO 11009KT 3SM BR SCT002 BKN096 M00/M00 A2997 RMK SLP154
  • 080800Z AUTO 11007KT 3/4SM BR SCT002 BKN210 M00/M01 A3000 RMK SLP161
  • 080743Z AUTO 10007KT 2 1/2SM BR FEW002 SCT140 M00/M01 A3001 RMK SLP165
  • 080722Z AUTO 10007KT 050V120 5SM BR BKN140 BKN170 M00/M00 A3001 RMK SLP166
  • 080700Z AUTO 12009KT 9SM SCT076 BKN160 M00/M00 A3001 RMK SLP166

TAF N/A
CZVR FIR / North America



MET'MAP, your aeronautical weather chart ! - Copyright ORBIFLY December 2007 - Disclaimer

ORBIFLY MET'MAP TEAM :

Programming & Development : Alexandra Zaïnal
Original concept : Baudouin d'Aumeries
Technical & hardware support : Manuel Goepfert
Assistance : Marc-Olivier Méhu




SOURCES & CREDITS :

   NOAA       Earth
Advisory